Terminal Aerodrome Forecast
Issued by NWS Wichita, KS

Home | Current Version | Previous Version | Graphics & Text | Print | Product List | Glossary On
Versions: 1 2 3 4 5 6 7 8 9 10 11 12 13 14 15 16 17 18 19
000
FTUS43 KICT 231720
TAFICT
TAF
KICT 231720Z 2318/2418 17011G18KT P6SM SCT035 SCT050
      TEMPO 2318/2322 BKN035
     FM240200 14008KT P6SM BKN250
     FM240900 16007KT P6SM SCT080
     FM241600 18011KT P6SM SCT200=

USA.gov is the U.S. government's official web portal to all federal, state and local government web resources and services.